Time;durP1;ratioP1;P1;durP2;ratioP2;P2;SDS_P1;SDS_P2;PMS_P1;PMS_P2;Temp;Humidity;BMP_temperature;BMP_pressure;BME280_temperature;BME280_humidity;BME280_pressure;Samples;Min_cycle;Max_cycle;Signal;HPM_P1;HPM_P2
2024/01/21 00:01:16;;;;;;;0.10;0.10;;;-1.70;92.40;;;;;;4998068;28;20478;-78
2024/01/21 00:03:42;;;;;;;0.10;0.10;;;-1.60;92.20;;;;;;5001368;28;20061;-78
2024/01/21 00:06:08;;;;;;;0.10;0.10;;;-1.60;92.10;;;;;;4997804;28;20030;-78
2024/01/21 00:08:33;;;;;;;0.10;0.10;;;-1.60;92.00;;;;;;4995230;28;20262;-78
2024/01/21 00:10:59;;;;;;;2.75;1.85;;;-1.60;92.10;;;;;;4997173;28;20037;-78
2024/01/21 00:13:25;;;;;;;0.10;0.10;;;-1.60;92.10;;;;;;4998934;28;20854;-77
2024/01/21 00:15:50;;;;;;;0.08;0.08;;;-1.60;92.10;;;;;;4998751;28;20018;-77
2024/01/21 00:18:16;;;;;;;0.30;0.30;;;-1.50;91.90;;;;;;5001351;28;20049;-78
2024/01/21 00:20:42;;;;;;;0.10;0.10;;;-1.50;92.00;;;;;;5000706;28;20134;-78
2024/01/21 00:23:08;;;;;;;0.87;0.87;;;-1.50;92.00;;;;;;5000272;28;20037;-77
2024/01/21 00:25:34;;;;;;;0.47;0.47;;;-1.40;91.70;;;;;;4997082;28;20026;-77
2024/01/21 00:28:00;;;;;;;0.10;0.10;;;-1.30;91.30;;;;;;4980094;28;20029;-78
2024/01/21 00:30:26;;;;;;;0.30;0.30;;;-1.30;91.10;;;;;;4993473;28;20157;-78
2024/01/21 00:32:51;;;;;;;0.10;0.10;;;-1.30;91.10;;;;;;4990559;28;20409;-78
2024/01/21 00:35:17;;;;;;;0.03;0.03;;;-1.40;91.30;;;;;;4994272;28;20022;-79
2024/01/21 00:37:43;;;;;;;0.05;0.05;;;-1.30;91.20;;;;;;5003746;28;20029;-78
2024/01/21 00:40:09;;;;;;;0.10;0.10;;;-1.30;91.20;;;;;;4999686;28;20038;-78
2024/01/21 00:42:35;;;;;;;0.87;0.87;;;-1.30;91.00;;;;;;5001490;28;20022;-78
2024/01/21 00:45:01;;;;;;;0.00;0.00;;;-1.40;91.00;;;;;;5002496;28;20033;-79
2024/01/21 00:47:27;;;;;;;0.08;0.08;;;-1.40;91.00;;;;;;4998491;28;20037;-78
2024/01/21 00:49:52;;;;;;;1.15;1.15;;;-1.40;91.00;;;;;;4995497;28;20029;-79
2024/01/21 00:52:18;;;;;;;3.40;1.00;;;-1.20;90.90;;;;;;5010450;28;20034;-78
2024/01/21 00:54:44;;;;;;;0.10;0.10;;;-1.20;90.60;;;;;;5008048;28;20550;-79
2024/01/21 00:57:10;;;;;;;0.10;0.10;;;-1.20;90.80;;;;;;5003571;28;20029;-78
2024/01/21 00:59:35;;;;;;;0.10;0.10;;;-0.90;89.70;;;;;;5000452;28;20037;-78
2024/01/21 01:02:01;;;;;;;0.10;0.10;;;-0.60;88.40;;;;;;5003551;28;20088;-79
2024/01/21 01:04:27;;;;;;;0.00;0.00;;;-0.80;88.60;;;;;;5000327;28;20075;-78
2024/01/21 01:06:52;;;;;;;0.10;0.10;;;-0.80;88.40;;;;;;5001955;28;20041;-78
2024/01/21 01:09:18;;;;;;;0.10;0.10;;;-0.80;88.60;;;;;;5002758;28;20042;-79
2024/01/21 01:11:44;;;;;;;0.38;0.38;;;-0.60;88.10;;;;;;5003398;28;20030;-77
2024/01/21 01:14:09;;;;;;;0.10;0.10;;;-0.70;88.20;;;;;;5001595;28;20029;-77
2024/01/21 01:16:39;;;;;;;0.05;0.05;;;-0.70;88.40;;;;;;5002879;28;20109;-78
2024/01/21 01:19:05;;;;;;;0.10;0.10;;;-0.80;88.80;;;;;;4976513;28;20082;-78
2024/01/21 01:21:31;;;;;;;0.10;0.10;;;-0.90;89.20;;;;;;5001319;28;20129;-78
2024/01/21 01:23:57;;;;;;;0.17;0.17;;;-1.00;89.50;;;;;;4996273;28;20056;-78
2024/01/21 01:26:22;;;;;;;0.10;0.10;;;-1.00;90.00;;;;;;5002407;28;20034;-78
2024/01/21 01:28:48;;;;;;;0.10;0.10;;;-1.10;90.10;;;;;;4995249;28;20071;-78
2024/01/21 01:31:17;;;;;;;0.10;0.10;;;-1.20;90.40;;;;;;5000127;28;20485;-78
2024/01/21 01:33:43;;;;;;;0.75;0.73;;;-1.30;90.60;;;;;;4999436;28;20069;-78
2024/01/21 01:36:09;;;;;;;0.10;0.10;;;-1.30;90.70;;;;;;4996177;28;20669;-78
2024/01/21 01:38:35;;;;;;;0.10;0.10;;;-1.30;90.80;;;;;;4979906;28;20030;-77
2024/01/21 01:41:00;;;;;;;1.80;0.68;;;-1.30;90.80;;;;;;5001181;28;20107;-77
2024/01/21 01:43:26;;;;;;;0.10;0.10;;;-1.30;90.90;;;;;;5001215;28;20105;-78
2024/01/21 01:45:52;;;;;;;0.10;0.10;;;-1.30;91.00;;;;;;5003275;28;20038;-78
2024/01/21 01:48:19;;;;;;;0.20;0.20;;;-1.20;91.10;;;;;;5006889;28;20572;-78
2024/01/21 01:50:46;;;;;;;0.00;0.00;;;-0.90;90.70;;;;;;4995747;28;20105;-78
2024/01/21 01:53:12;;;;;;;0.30;0.30;;;-0.40;90.00;;;;;;5006090;28;20050;-78
2024/01/21 01:55:38;;;;;;;0.10;0.10;;;-0.40;89.40;;;;;;5001423;28;20394;-78
2024/01/21 01:58:03;;;;;;;0.10;0.10;;;-0.30;89.50;;;;;;4994163;28;20512;-77
2024/01/21 02:00:29;;;;;;;0.10;0.10;;;-0.50;89.50;;;;;;4995962;28;20113;-78
2024/01/21 02:02:56;;;;;;;0.13;0.13;;;-0.60;90.00;;;;;;4971785;28;20657;-78
2024/01/21 02:05:22;;;;;;;0.03;0.03;;;-0.90;90.50;;;;;;5000197;28;20109;-78
2024/01/21 02:07:47;;;;;;;0.10;0.10;;;-1.00;91.00;;;;;;4999749;28;20580;-78
2024/01/21 02:10:13;;;;;;;0.00;0.00;;;-1.20;91.30;;;;;;5001757;28;20033;-78
2024/01/21 02:12:45;;;;;;;0.10;0.10;;;-1.20;91.60;;;;;;5001174;28;20033;-78
2024/01/21 02:15:13;;;;;;;1.00;0.85;;;-1.20;91.70;;;;;;5001032;28;20636;-78
2024/01/21 02:17:40;;;;;;;0.10;0.10;;;-0.70;91.30;;;;;;4982205;28;20437;-78
2024/01/21 02:20:07;;;;;;;0.55;0.55;;;-0.40;91.00;;;;;;4996780;28;20050;-77
2024/01/21 02:22:35;;;;;;;0.10;0.10;;;-0.30;90.90;;;;;;4977350;28;20127;-78
2024/01/21 02:25:01;;;;;;;0.00;0.00;;;-0.40;91.00;;;;;;4993788;28;20026;-78
2024/01/21 02:27:27;;;;;;;0.08;0.08;;;-0.50;91.20;;;;;;4999692;28;20036;-77
2024/01/21 02:29:52;;;;;;;0.10;0.10;;;0.10;90.70;;;;;;4996647;28;20040;-79
2024/01/21 02:32:18;;;;;;;0.10;0.10;;;0.10;90.70;;;;;;4993434;28;20034;-79
2024/01/21 02:34:44;;;;;;;0.00;0.00;;;0.20;90.40;;;;;;4999653;28;20073;-79
2024/01/21 02:37:09;;;;;;;0.10;0.10;;;0.30;90.60;;;;;;4997741;28;20033;-79
2024/01/21 02:39:35;;;;;;;0.00;0.00;;;-0.30;90.70;;;;;;4993766;28;20104;-79
2024/01/21 02:42:01;;;;;;;0.00;0.00;;;-0.40;90.80;;;;;;4995022;28;20038;-79
2024/01/21 02:44:26;;;;;;;0.00;0.00;;;-0.50;90.80;;;;;;5000614;28;20061;-79
2024/01/21 02:46:52;;;;;;;0.55;0.55;;;-0.40;90.70;;;;;;4976420;28;20034;-79
2024/01/21 02:49:18;;;;;;;0.10;0.10;;;-0.40;90.50;;;;;;4997896;28;20072;-79
2024/01/21 02:51:43;;;;;;;0.10;0.10;;;-0.40;90.50;;;;;;5001990;28;20033;-79
2024/01/21 02:54:09;;;;;;;0.00;0.00;;;-0.60;90.70;;;;;;5001255;28;20132;-79
2024/01/21 02:56:34;;;;;;;0.03;0.03;;;-0.60;90.90;;;;;;5000529;28;20388;-79
2024/01/21 02:59:00;;;;;;;0.10;0.10;;;-0.70;90.90;;;;;;5000219;28;20033;-79
2024/01/21 03:01:26;;;;;;;0.20;0.20;;;-0.70;91.20;;;;;;4997065;28;20041;-79
2024/01/21 03:03:51;;;;;;;0.10;0.10;;;-0.80;91.50;;;;;;4976065;28;20485;-79
2024/01/21 03:06:17;;;;;;;0.17;0.17;;;-0.70;91.70;;;;;;4997846;28;20068;-79
2024/01/21 03:08:43;;;;;;;0.10;0.10;;;-0.50;91.70;;;;;;4999315;28;20103;-79
2024/01/21 03:11:08;;;;;;;0.00;0.00;;;-0.50;91.60;;;;;;5000652;28;20792;-79
2024/01/21 03:13:34;;;;;;;0.10;0.10;;;-0.50;91.80;;;;;;5000719;28;20108;-79
2024/01/21 03:16:01;;;;;;;0.00;0.00;;;-0.40;91.80;;;;;;4970406;28;20034;-79
2024/01/21 03:18:26;;;;;;;0.00;0.00;;;-0.30;92.00;;;;;;4993096;28;20034;-79
2024/01/21 03:20:52;;;;;;;0.10;0.10;;;-0.40;92.20;;;;;;4997008;28;20053;-79
2024/01/21 03:23:18;;;;;;;0.10;0.10;;;-0.40;92.30;;;;;;4999962;28;20651;-78
2024/01/21 03:25:45;;;;;;;0.10;0.10;;;-0.60;92.70;;;;;;5000878;28;20033;-78
2024/01/21 03:28:10;;;;;;;0.10;0.10;;;-0.60;93.30;;;;;;4998213;28;20054;-79
2024/01/21 03:30:36;;;;;;;0.00;0.00;;;-0.60;93.00;;;;;;4993041;28;20117;-78
2024/01/21 03:33:02;;;;;;;0.10;0.10;;;-0.30;93.90;;;;;;5009035;28;20499;-79
2024/01/21 03:35:27;;;;;;;1.00;1.00;;;-0.10;93.90;;;;;;4995091;28;20096;-78
2024/01/21 03:37:53;;;;;;;0.70;0.70;;;0.40;95.30;;;;;;4993180;28;20757;-79
2024/01/21 03:40:18;;;;;;;4.40;2.28;;;0.60;94.80;;;;;;4992751;28;20038;-79
2024/01/21 03:42:45;;;;;;;0.55;0.55;;;0.60;94.50;;;;;;4998714;28;20041;-79
2024/01/21 03:45:11;;;;;;;1.00;1.00;;;0.50;94.80;;;;;;5004531;28;20030;-79
2024/01/21 03:47:37;;;;;;;0.23;0.23;;;0.30;94.60;;;;;;5000403;28;20084;-79
2024/01/21 03:50:03;;;;;;;5.22;1.35;;;0.10;94.90;;;;;;4995896;28;20442;-79
2024/01/21 03:52:29;;;;;;;0.40;0.40;;;0.10;95.20;;;;;;4998450;28;20062;-79
2024/01/21 03:54:56;;;;;;;0.10;0.10;;;0.20;95.30;;;;;;4993617;28;20056;-79
2024/01/21 03:57:21;;;;;;;0.10;0.10;;;0.60;95.30;;;;;;5000616;28;20485;-78
2024/01/21 03:59:47;;;;;;;0.08;0.08;;;0.60;95.10;;;;;;4992255;28;20046;-78
2024/01/21 04:02:13;;;;;;;0.05;0.05;;;0.70;94.60;;;;;;5004394;28;20121;-78
2024/01/21 04:04:38;;;;;;;0.10;0.10;;;0.00;94.80;;;;;;5011539;28;20120;-78
2024/01/21 04:07:04;;;;;;;0.00;0.00;;;-0.40;95.50;;;;;;5002620;28;20037;-78
2024/01/21 04:09:31;;;;;;;0.00;0.00;;;-0.60;96.00;;;;;;5003062;28;20065;-79
2024/01/21 04:11:56;;;;;;;0.17;0.17;;;-0.80;96.10;;;;;;5008233;28;20778;-79
2024/01/21 04:14:22;;;;;;;0.10;0.10;;;-0.80;96.20;;;;;;5010557;28;20032;-79
2024/01/21 04:16:48;;;;;;;0.10;0.10;;;-0.80;96.30;;;;;;5004722;28;20714;-78
2024/01/21 04:19:16;;;;;;;0.00;0.00;;;-0.80;96.20;;;;;;4999537;28;20029;-78
2024/01/21 04:21:42;;;;;;;0.10;0.10;;;-0.80;96.20;;;;;;5004689;28;20876;-78
2024/01/21 04:24:08;;;;;;;0.10;0.10;;;-0.80;96.10;;;;;;5002744;28;20034;-78
2024/01/21 04:26:34;;;;;;;0.10;0.10;;;-0.70;95.80;;;;;;5010275;28;20029;-79
2024/01/21 04:28:59;;;;;;;0.10;0.10;;;-0.50;95.70;;;;;;4980218;28;20384;-79
2024/01/21 04:31:25;;;;;;;0.10;0.10;;;-0.30;95.10;;;;;;5002724;28;20061;-79
2024/01/21 04:33:51;;;;;;;0.10;0.10;;;-0.30;95.60;;;;;;5005172;28;20041;-79
2024/01/21 04:36:18;;;;;;;0.10;0.10;;;-0.10;95.50;;;;;;5007130;28;20040;-79
2024/01/21 04:38:45;;;;;;;0.20;0.20;;;0.10;96.00;;;;;;4996877;28;20809;-79
2024/01/21 04:41:12;;;;;;;0.10;0.10;;;0.40;96.00;;;;;;5002844;28;20964;-78
2024/01/21 04:43:38;;;;;;;0.10;0.10;;;0.30;95.70;;;;;;4997674;28;20691;-78
2024/01/21 04:46:04;;;;;;;0.25;0.25;;;0.00;95.70;;;;;;5001946;28;20029;-78
2024/01/21 04:48:30;;;;;;;0.10;0.10;;;-0.40;96.10;;;;;;5002309;28;20034;-78
2024/01/21 04:50:55;;;;;;;0.10;0.10;;;-0.50;96.30;;;;;;5001440;28;20464;-78
2024/01/21 04:53:21;;;;;;;0.10;0.10;;;-0.30;96.60;;;;;;5001511;28;20418;-78
2024/01/21 04:55:47;;;;;;;3.28;2.03;;;0.00;96.60;;;;;;5003236;28;20096;-78
2024/01/21 04:58:12;;;;;;;0.00;0.00;;;-0.30;96.20;;;;;;5000658;28;20018;-78
2024/01/21 05:00:38;;;;;;;0.00;0.00;;;-0.50;96.40;;;;;;4997576;28;20034;-78
2024/01/21 05:03:04;;;;;;;0.68;0.40;;;-0.20;96.60;;;;;;4978538;28;20045;-78
2024/01/21 05:05:29;;;;;;;0.10;0.10;;;-0.10;96.40;;;;;;4998214;28;20118;-78
2024/01/21 05:07:55;;;;;;;0.10;0.10;;;-0.20;96.50;;;;;;5000349;28;20365;-79
2024/01/21 05:10:21;;;;;;;0.10;0.10;;;0.10;96.70;;;;;;4996875;28;20034;-78
2024/01/21 05:12:46;;;;;;;0.10;0.10;;;0.10;96.30;;;;;;4998111;28;20048;-78
2024/01/21 05:15:12;;;;;;;0.10;0.10;;;-0.10;96.30;;;;;;4997712;28;20038;-78
2024/01/21 05:17:37;;;;;;;0.00;0.00;;;0.30;97.10;;;;;;4997997;28;20030;-78
2024/01/21 05:20:03;;;;;;;0.10;0.10;;;0.30;96.70;;;;;;4999557;28;20120;-79
2024/01/21 05:22:29;;;;;;;0.00;0.00;;;0.90;96.80;;;;;;4997209;28;20069;-79
2024/01/21 05:24:55;;;;;;;0.00;0.00;;;0.90;96.50;;;;;;5003246;28;20343;-78
2024/01/21 05:27:21;;;;;;;0.10;0.10;;;0.60;96.50;;;;;;4992802;28;20025;-78
2024/01/21 05:29:47;;;;;;;0.10;0.10;;;0.10;96.80;;;;;;4996589;28;20028;-78
2024/01/21 05:32:13;;;;;;;0.10;0.10;;;-0.10;97.20;;;;;;4999057;28;20859;-78
2024/01/21 05:34:39;;;;;;;0.10;0.10;;;-0.30;97.40;;;;;;4996750;28;20030;-78
2024/01/21 05:37:05;;;;;;;0.10;0.10;;;-0.10;98.00;;;;;;4994658;28;20520;-78
2024/01/21 05:39:31;;;;;;;0.10;0.10;;;0.40;98.90;;;;;;5002013;28;20030;-78
2024/01/21 05:42:05;;;;;;;0.10;0.10;;;0.50;98.30;;;;;;4996690;28;20026;-79
2024/01/21 05:44:31;;;;;;;0.10;0.10;;;0.70;98.80;;;;;;4999362;28;20079;-79
2024/01/21 05:46:57;;;;;;;0.10;0.10;;;0.30;97.70;;;;;;4995499;28;20049;-80
2024/01/21 05:49:23;;;;;;;0.10;0.10;;;-0.20;98.10;;;;;;4998888;28;20305;-78
2024/01/21 05:51:49;;;;;;;0.10;0.10;;;-0.40;98.60;;;;;;4999761;28;20026;-78
2024/01/21 05:54:15;;;;;;;0.10;0.10;;;0.00;98.90;;;;;;5002921;28;20072;-79
2024/01/21 05:56:41;;;;;;;0.00;0.00;;;0.20;98.60;;;;;;4999957;28;20032;-79
2024/01/21 05:59:07;;;;;;;0.10;0.10;;;0.10;98.50;;;;;;5001444;28;20038;-80
2024/01/21 06:01:32;;;;;;;0.10;0.10;;;-0.30;98.20;;;;;;5000843;28;20552;-80
2024/01/21 06:03:58;;;;;;;0.10;0.10;;;-0.10;98.50;;;;;;4980556;28;20642;-80
2024/01/21 06:06:24;;;;;;;0.10;0.10;;;-0.20;98.70;;;;;;4996502;28;20556;-79
2024/01/21 06:08:49;;;;;;;0.10;0.10;;;-0.50;98.60;;;;;;5000905;28;20398;-79
2024/01/21 06:11:15;;;;;;;4.75;2.83;;;-0.60;99.10;;;;;;4980182;28;20126;-79
2024/01/21 06:13:40;;;;;;;0.10;0.10;;;-0.50;99.20;;;;;;5002991;28;20500;-79
2024/01/21 06:16:06;;;;;;;0.00;0.00;;;0.00;98.90;;;;;;4998285;28;20559;-79
2024/01/21 06:18:32;;;;;;;0.00;0.00;;;-0.10;98.60;;;;;;5002422;28;20040;-79
2024/01/21 06:20:57;;;;;;;0.10;0.10;;;0.10;98.50;;;;;;4996346;28;20065;-79
2024/01/21 06:23:23;;;;;;;0.10;0.10;;;0.20;98.50;;;;;;5000953;28;20572;-79
2024/01/21 06:25:49;;;;;;;0.10;0.10;;;0.50;98.40;;;;;;5000447;28;20026;-79
2024/01/21 06:28:16;;;;;;;0.10;0.10;;;0.80;98.30;;;;;;5001745;28;20026;-81
2024/01/21 06:30:42;;;;;;;0.13;0.13;;;0.70;97.90;;;;;;4994057;28;20029;-77
2024/01/21 06:33:08;;;;;;;0.00;0.00;;;0.40;98.00;;;;;;5002242;28;20025;-79
2024/01/21 06:35:33;;;;;;;0.17;0.17;;;0.40;98.10;;;;;;4998500;28;20053;-79
2024/01/21 06:37:59;;;;;;;0.10;0.10;;;0.50;98.30;;;;;;4995601;28;20035;-80
2024/01/21 06:40:24;;;;;;;0.10;0.10;;;0.50;98.20;;;;;;4993536;28;20030;-79
2024/01/21 06:42:50;;;;;;;0.10;0.10;;;0.50;98.10;;;;;;5001465;28;20111;-79
2024/01/21 06:45:16;;;;;;;0.10;0.10;;;0.50;98.30;;;;;;4995904;28;20511;-79
2024/01/21 06:47:42;;;;;;;0.10;0.10;;;0.50;98.40;;;;;;4994609;28;20858;-79
2024/01/21 06:50:09;;;;;;;0.17;0.17;;;0.60;98.10;;;;;;4996166;28;20057;-79
2024/01/21 06:52:36;;;;;;;0.10;0.10;;;0.60;98.30;;;;;;5001565;28;20056;-78
2024/01/21 06:55:02;;;;;;;1.30;1.30;;;0.70;98.10;;;;;;5001412;28;20037;-79
2024/01/21 06:57:27;;;;;;;0.10;0.10;;;0.90;98.20;;;;;;4999931;28;20037;-78
2024/01/21 06:59:53;;;;;;;0.10;0.10;;;1.10;98.00;;;;;;4999966;28;20072;-78
2024/01/21 07:02:19;;;;;;;0.10;0.10;;;1.00;97.80;;;;;;5001203;28;20059;-79
2024/01/21 07:04:45;;;;;;;0.10;0.10;;;0.80;97.80;;;;;;4998296;28;20084;-79
2024/01/21 07:07:10;;;;;;;0.10;0.10;;;0.80;98.00;;;;;;4993861;28;20034;-79
2024/01/21 07:09:40;;;;;;;0.10;0.10;;;0.90;98.40;;;;;;4991445;28;20032;-79
2024/01/21 07:12:06;;;;;;;0.15;0.15;;;1.10;98.30;;;;;;4995638;28;20819;-79
2024/01/21 07:14:34;;;;;;;0.10;0.10;;;1.00;98.50;;;;;;5000109;28;20041;-79
2024/01/21 07:17:01;;;;;;;0.10;0.10;;;1.00;98.60;;;;;;5001829;28;20448;-79
2024/01/21 07:19:27;;;;;;;;;;;1.10;99.00;;;;;;4999044;28;20115;-79
2024/01/21 07:21:52;;;;;;;0.10;0.10;;;1.30;98.90;;;;;;4981904;28;20008;-78
2024/01/21 07:24:19;;;;;;;0.10;0.10;;;1.60;99.40;;;;;;5000276;28;20402;-79
2024/01/21 07:26:45;;;;;;;0.10;0.10;;;1.70;98.10;;;;;;4995319;28;20022;-78
2024/01/21 07:29:13;;;;;;;0.10;0.10;;;1.70;98.40;;;;;;4990312;28;20076;-79
2024/01/21 07:31:39;;;;;;;0.10;0.10;;;1.80;98.40;;;;;;4999088;28;20022;-79
2024/01/21 07:34:09;;;;;;;0.10;0.10;;;1.50;98.10;;;;;;4995505;28;20618;-79
2024/01/21 07:36:35;;;;;;;0.32;0.32;;;1.40;98.10;;;;;;4999255;28;20416;-79
2024/01/21 07:39:00;;;;;;;0.00;0.00;;;1.30;98.30;;;;;;4996584;28;20018;-79
2024/01/21 07:41:26;;;;;;;0.10;0.10;;;1.20;98.50;;;;;;5004304;28;20033;-78
2024/01/21 07:43:52;;;;;;;0.10;0.10;;;1.20;98.60;;;;;;4999241;28;20050;-77
2024/01/21 07:46:17;;;;;;;0.10;0.10;;;1.20;98.90;;;;;;4996865;28;20052;-78
2024/01/21 07:48:43;;;;;;;0.30;0.30;;;1.20;98.70;;;;;;4998021;28;20883;-77
2024/01/21 07:51:09;;;;;;;0.20;0.20;;;1.20;99.00;;;;;;4997195;28;20018;-77
2024/01/21 07:53:34;;;;;;;0.88;0.75;;;1.00;98.90;;;;;;5008557;28;20034;-77
2024/01/21 07:56:00;;;;;;;0.10;0.10;;;1.10;99.00;;;;;;5003716;28;20564;-77
2024/01/21 07:58:26;;;;;;;0.10;0.10;;;1.20;98.90;;;;;;5003462;28;20037;-77
2024/01/21 08:00:51;;;;;;;0.10;0.10;;;1.20;98.70;;;;;;4996823;28;20030;-78
2024/01/21 08:03:17;;;;;;;3.00;2.72;;;1.50;98.30;;;;;;5003386;28;20053;-77
2024/01/21 08:05:43;;;;;;;0.03;0.03;;;1.70;98.00;;;;;;5005375;28;20018;-77
2024/01/21 08:08:08;;;;;;;0.20;0.20;;;1.80;97.60;;;;;;5004781;28;20160;-78
2024/01/21 08:10:34;;;;;;;0.10;0.10;;;1.90;97.40;;;;;;5000257;28;20029;-77
2024/01/21 08:13:00;;;;;;;0.20;0.20;;;2.10;97.40;;;;;;4999564;28;20112;-77
2024/01/21 08:15:26;;;;;;;0.10;0.10;;;2.30;97.20;;;;;;4999349;28;20054;-77
2024/01/21 08:17:51;;;;;;;0.10;0.10;;;2.60;97.20;;;;;;5004462;28;20473;-79
2024/01/21 08:20:17;;;;;;;0.10;0.10;;;2.60;97.30;;;;;;5001278;28;20062;-77
2024/01/21 08:22:43;;;;;;;0.10;0.10;;;2.50;96.60;;;;;;5005245;28;20071;-78
2024/01/21 08:25:09;;;;;;;0.10;0.10;;;2.40;96.70;;;;;;5004684;28;20013;-80
2024/01/21 08:27:35;;;;;;;0.10;0.10;;;2.30;96.70;;;;;;5002859;28;20124;-78
2024/01/21 08:30:04;;;;;;;0.10;0.10;;;2.30;96.70;;;;;;5003316;28;20029;-81
2024/01/21 08:32:29;;;;;;;0.10;0.10;;;2.10;96.80;;;;;;5003593;28;20552;-78
2024/01/21 08:34:55;;;;;;;0.10;0.10;;;1.90;97.00;;;;;;5004173;28;20049;-79
2024/01/21 08:37:21;;;;;;;0.10;0.10;;;2.00;97.20;;;;;;5004276;28;20021;-78
2024/01/21 08:39:48;;;;;;;0.10;0.10;;;2.30;96.80;;;;;;4992622;28;20081;-79
2024/01/21 08:42:13;;;;;;;;;;;2.50;96.40;;;;;;4987041;28;20049;-78
2024/01/21 08:44:39;;;;;;;0.10;0.10;;;2.80;96.00;;;;;;4991192;28;20388;-78
2024/01/21 08:47:05;;;;;;;0.10;0.10;;;3.80;95.00;;;;;;5003698;28;20826;-78
2024/01/21 08:49:30;;;;;;;0.20;0.20;;;4.90;93.00;;;;;;5001585;28;20049;-77
2024/01/21 08:51:56;;;;;;;0.10;0.10;;;5.50;91.60;;;;;;5004681;28;20025;-77
2024/01/21 08:54:22;;;;;;;0.10;0.10;;;4.70;91.40;;;;;;5011015;28;20034;-77
2024/01/21 08:56:48;;;;;;;0.45;0.45;;;4.20;92.50;;;;;;4993916;28;20049;-77
2024/01/21 08:59:13;;;;;;;0.10;0.10;;;3.70;93.60;;;;;;5003589;28;20063;-76
2024/01/21 09:01:39;;;;;;;0.10;0.10;;;3.40;94.00;;;;;;5003684;28;20121;-77
2024/01/21 09:04:05;;;;;;;0.10;0.10;;;3.00;94.50;;;;;;5008675;28;20026;-77
2024/01/21 09:06:30;;;;;;;0.10;0.10;;;2.60;95.30;;;;;;5002299;28;20030;-77
2024/01/21 09:08:56;;;;;;;0.10;0.10;;;2.50;95.70;;;;;;5001588;28;20080;-77
2024/01/21 09:11:23;;;;;;;0.10;0.10;;;3.00;96.00;;;;;;4999091;28;20034;-77
2024/01/21 09:13:49;;;;;;;0.10;0.10;;;3.80;95.00;;;;;;5005315;28;20033;-77
2024/01/21 09:16:20;;;;;;;0.10;0.10;;;4.70;93.70;;;;;;5009386;28;20026;-78
2024/01/21 09:18:46;;;;;;;0.10;0.10;;;3.80;93.60;;;;;;5000583;28;20036;-78
2024/01/21 09:21:12;;;;;;;0.10;0.10;;;3.40;94.50;;;;;;4998402;28;20061;-78
2024/01/21 09:23:38;;;;;;;0.10;0.10;;;4.00;94.30;;;;;;5000381;28;20038;-76
2024/01/21 09:26:03;;;;;;;0.10;0.10;;;4.60;93.10;;;;;;5003587;28;20019;-76
2024/01/21 09:28:29;;;;;;;0.10;0.10;;;4.80;92.50;;;;;;5015075;28;20316;-76
2024/01/21 09:30:55;;;;;;;0.10;0.10;;;5.10;91.80;;;;;;5015362;28;20026;-76
2024/01/21 09:33:20;;;;;;;0.10;0.10;;;5.60;91.70;;;;;;5002951;28;20026;-76
2024/01/21 09:35:46;;;;;;;0.10;0.10;;;6.30;91.10;;;;;;5003674;28;21108;-76
2024/01/21 09:38:14;;;;;;;0.10;0.10;;;7.10;90.40;;;;;;4992758;28;20033;-78
2024/01/21 09:40:40;;;;;;;0.70;0.70;;;7.30;89.50;;;;;;4972586;28;20031;-77
2024/01/21 09:43:06;;;;;;;0.10;0.10;;;7.00;89.60;;;;;;4979609;28;20032;-81
2024/01/21 09:45:37;;;;;;;0.10;0.10;;;6.60;90.30;;;;;;4990112;28;20743;-76
2024/01/21 09:48:05;;;;;;;0.10;0.10;;;6.00;90.30;;;;;;5003937;28;20276;-74
2024/01/21 09:50:32;;;;;;;0.10;0.10;;;5.80;91.10;;;;;;5003877;28;20113;-75
2024/01/21 09:52:58;;;;;;;0.10;0.10;;;6.50;90.40;;;;;;5002005;28;20017;-75
2024/01/21 09:55:24;;;;;;;0.10;0.10;;;6.90;89.20;;;;;;5001432;28;20446;-76
2024/01/21 09:57:51;;;;;;;0.10;0.10;;;6.60;90.00;;;;;;5002349;28;20678;-76
2024/01/21 10:00:17;;;;;;;0.10;0.10;;;6.30;90.70;;;;;;4998723;28;20030;-75
2024/01/21 10:02:44;;;;;;;0.10;0.10;;;6.30;90.70;;;;;;4993593;28;20598;-75
2024/01/21 10:05:10;;;;;;;0.10;0.10;;;6.00;91.30;;;;;;4999254;28;20034;-75
2024/01/21 10:07:37;;;;;;;0.15;0.15;;;6.20;91.40;;;;;;4991465;28;20037;-75
2024/01/21 10:10:07;;;;;;;0.10;0.10;;;6.30;91.20;;;;;;5000558;28;20038;-77
2024/01/21 10:12:35;;;;;;;0.10;0.10;;;6.90;91.30;;;;;;5003457;28;20121;-78
2024/01/21 10:15:01;;;;;;;0.10;0.10;;;7.40;90.40;;;;;;5003606;28;20433;-85
2024/01/21 10:17:27;;;;;;;0.10;0.10;;;7.60;90.40;;;;;;5003537;28;20052;-82
2024/01/21 10:19:57;;;;;;;0.10;0.10;;;7.50;90.20;;;;;;5002867;28;20062;-82
2024/01/21 10:22:25;;;;;;;0.10;0.10;;;7.60;90.20;;;;;;5012375;28;20137;-86
2024/01/21 10:24:51;;;;;;;0.10;0.10;;;7.70;90.10;;;;;;4996471;28;20030;-82
2024/01/21 10:27:17;;;;;;;0.10;0.10;;;7.80;89.00;;;;;;5002860;28;20055;-84
2024/01/21 10:29:45;;;;;;;0.13;0.13;;;7.50;88.60;;;;;;4975933;28;20030;-85
2024/01/21 10:32:13;;;;;;;0.10;0.10;;;7.20;89.80;;;;;;5003313;28;20115;-84
2024/01/21 10:34:49;;;;;;;0.10;0.10;;;7.30;89.90;;;;;;4984594;28;20409;-84
2024/01/21 10:37:15;;;;;;;0.30;0.30;;;7.40;89.30;;;;;;5003456;28;20029;-82
2024/01/21 10:39:45;;;;;;;0.10;0.10;;;7.40;89.10;;;;;;4997387;28;20026;-83
2024/01/21 10:42:12;;;;;;;0.10;0.10;;;7.30;89.90;;;;;;4982664;28;20028;-82
2024/01/21 10:44:39;;;;;;;0.10;0.10;;;7.40;90.20;;;;;;5004068;28;20095;-81
2024/01/21 10:47:07;;;;;;;0.10;0.10;;;8.00;88.70;;;;;;4982051;28;20451;-83
2024/01/21 10:49:33;;;;;;;0.10;0.10;;;8.00;88.70;;;;;;4994223;28;20041;-82
2024/01/21 10:51:59;;;;;;;0.10;0.10;;;7.60;88.90;;;;;;5000241;28;20533;-83
2024/01/21 10:54:25;;;;;;;0.10;0.10;;;7.40;89.30;;;;;;4995552;28;20045;-83
2024/01/21 10:56:51;;;;;;;0.10;0.10;;;7.20;89.90;;;;;;4995646;28;20025;-81
2024/01/21 10:59:18;;;;;;;0.10;0.10;;;7.20;90.10;;;;;;4984769;28;20060;-79
2024/01/21 11:01:45;;;;;;;0.10;0.10;;;7.30;90.00;;;;;;5000511;28;20569;-78
2024/01/21 11:04:12;;;;;;;;;;;7.30;90.40;;;;;;4972161;28;20037;-77
2024/01/21 11:06:46;;;;;;;0.10;0.10;;;7.40;90.00;;;;;;4971966;28;19913;-77
2024/01/21 11:09:21;;;;;;;0.10;0.10;;;7.50;90.20;;;;;;4988115;28;20076;-76
2024/01/21 11:11:51;;;;;;;0.10;0.10;;;7.50;89.80;;;;;;4992696;28;20784;-76
2024/01/21 11:14:31;;;;;;;0.40;0.40;;;7.70;90.10;;;;;;4998439;28;20113;-77
2024/01/21 11:17:11;;;;;;;0.10;0.10;;;7.70;89.50;;;;;;4990868;28;20027;-76
2024/01/21 11:19:53;;;;;;;0.10;0.10;;;7.50;89.00;;;;;;5003240;28;20077;-76
2024/01/21 11:22:25;;;;;;;0.10;0.10;;;7.50;89.10;;;;;;4999096;28;20030;-76
2024/01/21 11:24:53;;;;;;;0.10;0.10;;;7.50;90.30;;;;;;4983593;28;20025;-77
2024/01/21 11:27:22;;;;;;;0.10;0.10;;;7.60;90.00;;;;;;4999282;28;20075;-76
2024/01/21 11:29:55;;;;;;;0.10;0.10;;;7.60;89.70;;;;;;5000056;28;20486;-76
2024/01/21 11:32:29;;;;;;;0.10;0.10;;;7.60;89.20;;;;;;4976832;28;20045;-76
2024/01/21 11:35:13;;;;;;;0.10;0.10;;;7.50;89.50;;;;;;5000169;28;20164;-76
2024/01/21 11:37:41;;;;;;;0.10;0.10;;;7.60;89.70;;;;;;4997554;28;20025;-76
2024/01/21 11:40:07;;;;;;;0.10;0.10;;;7.70;90.20;;;;;;4981740;28;20410;-76
2024/01/21 11:42:34;;;;;;;0.10;0.10;;;7.70;90.10;;;;;;4995153;28;20038;-76
2024/01/21 11:45:04;;;;;;;0.10;0.10;;;7.70;88.90;;;;;;4997723;28;20088;-76
2024/01/21 11:47:31;;;;;;;0.10;0.10;;;7.60;89.30;;;;;;4999478;28;20561;-75
2024/01/21 11:49:59;;;;;;;0.10;0.10;;;7.70;88.40;;;;;;4978456;28;20881;-76
2024/01/21 11:52:24;;;;;;;0.30;0.30;;;7.80;87.90;;;;;;4981068;28;20041;-77
2024/01/21 11:54:50;;;;;;;0.10;0.10;;;7.80;88.00;;;;;;4998080;28;20033;-77
2024/01/21 11:57:16;;;;;;;1.08;1.08;;;7.80;88.60;;;;;;4997888;28;20533;-76
2024/01/21 11:59:42;;;;;;;0.00;0.00;;;8.00;88.20;;;;;;4997476;28;20792;-76
2024/01/21 12:02:11;;;;;;;0.10;0.10;;;8.20;87.10;;;;;;4999189;28;20032;-77
2024/01/21 12:04:37;;;;;;;0.45;0.43;;;8.50;86.90;;;;;;4999087;28;20033;-76
2024/01/21 12:07:04;;;;;;;0.10;0.10;;;8.80;84.30;;;;;;4996152;28;20060;-76
2024/01/21 12:09:30;;;;;;;0.10;0.10;;;8.90;83.80;;;;;;4979278;28;20062;-76
2024/01/21 12:11:58;;;;;;;0.10;0.10;;;8.90;83.80;;;;;;4994226;28;20034;-75
2024/01/21 12:14:24;;;;;;;0.10;0.10;;;9.10;82.70;;;;;;4990224;28;20030;-75
2024/01/21 12:16:54;;;;;;;0.10;0.10;;;9.20;82.90;;;;;;4996002;28;20026;-76
2024/01/21 12:19:20;;;;;;;0.10;0.10;;;9.30;81.00;;;;;;5004225;28;20183;-75
2024/01/21 12:21:47;;;;;;;0.10;0.10;;;9.50;82.60;;;;;;4996912;28;20030;-76
2024/01/21 12:24:13;;;;;;;0.10;0.10;;;9.30;82.30;;;;;;4999588;28;20069;-75
2024/01/21 12:26:39;;;;;;;0.10;0.10;;;9.10;82.50;;;;;;5003799;28;20088;-75
2024/01/21 12:29:09;;;;;;;0.00;0.00;;;9.10;82.60;;;;;;5000334;28;20855;-74
2024/01/21 12:31:39;;;;;;;0.10;0.10;;;9.40;81.60;;;;;;4998160;28;20026;-75
2024/01/21 12:34:10;;;;;;;0.00;0.00;;;9.70;80.90;;;;;;4997715;28;20129;-75
2024/01/21 12:36:45;;;;;;;0.00;0.00;;;9.80;79.50;;;;;;5000933;28;20485;-75
2024/01/21 12:39:12;;;;;;;0.00;0.00;;;9.80;78.70;;;;;;4999872;28;20402;-75
2024/01/21 12:41:37;;;;;;;;;;;10.00;79.60;;;;;;4999772;28;20498;-75
2024/01/21 12:44:03;;;;;;;0.05;0.05;;;10.00;78.80;;;;;;4990582;28;20021;-76
2024/01/21 12:46:30;;;;;;;0.10;0.10;;;9.80;79.80;;;;;;5000551;28;20072;-76
2024/01/21 12:48:56;;;;;;;0.00;0.00;;;10.00;81.90;;;;;;5001316;28;20028;-75